Time;durP1;ratioP1;P1;durP2;ratioP2;P2;SDS_P1;SDS_P2;PMS_P1;PMS_P2;Temp;Humidity;BMP_temperature;BMP_pressure;BME280_temperature;BME280_humidity;BME280_pressure;Samples;Min_cycle;Max_cycle;Signal;HPM_P1;HPM_P2
2021/01/08 00:02:21;;;;;;;;;;;12.70;48.30;;;;;;5092428;28;19931;-82
2021/01/08 00:04:48;;;;;;;;;;;12.60;48.80;;;;;;5093386;28;19924;-82
2021/01/08 00:07:14;;;;;;;;;;;12.50;48.90;;;;;;5108070;28;19994;-82
2021/01/08 00:09:41;;;;;;;;;;;12.50;49.30;;;;;;5113096;28;20410;-81
2021/01/08 00:12:07;;;;;;;;;;;12.40;49.20;;;;;;5113151;28;19924;-82
2021/01/08 00:14:34;;;;;;;;;;;12.40;49.10;;;;;;5112377;28;19927;-81
2021/01/08 00:17:00;;;;;;;;;;;12.50;49.30;;;;;;5100132;28;19942;-80
2021/01/08 00:19:27;;;;;;;;;;;12.70;49.30;;;;;;5092185;28;20296;-80
2021/01/08 00:21:53;;;;;;;;;;;11.90;48.40;;;;;;5092002;28;19930;-80
2021/01/08 00:24:20;;;;;;;;;;;12.80;48.70;;;;;;5092365;28;19924;-80
2021/01/08 00:26:47;;;;;;;;;;;12.80;48.90;;;;;;5092252;28;19923;-82
2021/01/08 00:29:15;;;;;;;;;;;12.90;48.60;;;;;;5110627;28;20379;-80
2021/01/08 00:31:46;;;;;;;;;;;12.80;48.40;;;;;;5112448;28;20073;-80
2021/01/08 00:34:14;;;;;;;;;;;12.70;48.30;;;;;;5112783;28;19924;-80
2021/01/08 00:36:51;;;;;;;;;;;12.80;48.80;;;;;;5114497;27;19924;-80
2021/01/08 00:39:18;;;;;;;;;;;12.90;48.40;;;;;;5116190;27;20013;-80
2021/01/08 00:41:44;;;;;;;;;;;13.00;48.30;;;;;;5116139;27;19927;-80
2021/01/08 00:44:11;;;;;;;;;;;13.10;48.10;;;;;;5116251;27;19927;-80
2021/01/08 00:46:42;;;;;;;;;;;13.20;48.00;;;;;;5116088;27;20354;-79
2021/01/08 00:49:09;;;;;;;;;;;13.20;47.50;;;;;;5114924;27;19976;-80
2021/01/08 00:51:35;;;;;;;;;;;13.20;47.80;;;;;;5112279;28;19924;-80
2021/01/08 00:54:02;;;;;;;;;;;13.20;47.50;;;;;;5112653;28;20002;-80
2021/01/08 00:56:29;;;;;;;;;;;13.30;47.80;;;;;;5112522;28;19927;-79
2021/01/08 00:58:56;;;;;;;;;;;13.30;47.50;;;;;;5095774;28;19930;-81
2021/01/08 01:01:23;;;;;;;;;;;13.40;47.40;;;;;;5095630;28;20023;-80
2021/01/08 01:03:50;;;;;;;;;;;13.20;47.00;;;;;;5095589;28;19924;-80
2021/01/08 01:06:23;;;;;;;;;;;13.10;47.50;;;;;;5095624;28;19924;-81
2021/01/08 01:08:50;;;;;;;;;;;13.10;47.80;;;;;;5111889;28;19950;-82
2021/01/08 01:11:16;;;;;;;;;;;13.20;47.60;;;;;;5095496;28;19930;-84
2021/01/08 01:13:43;;;;;;;;;;;13.30;47.60;;;;;;5111981;28;19924;-80
2021/01/08 01:16:11;;;;;;;;;;;13.20;47.20;;;;;;5112071;28;20467;-81
2021/01/08 01:18:38;;;;;;;;;;;13.20;47.70;;;;;;5094923;28;19934;-80
2021/01/08 01:21:07;;;;;;;;;;;13.20;47.10;;;;;;5095030;28;19931;-81
2021/01/08 01:23:34;;;;;;;;;;;12.90;47.40;;;;;;5095060;28;20353;-79
2021/01/08 01:26:00;;;;;;;;;;;11.80;47.70;;;;;;5095205;28;20008;-80
2021/01/08 01:28:26;;;;;;;;;;;13.10;47.70;;;;;;5106177;27;20310;-80
2021/01/08 01:30:53;;;;;;;;;;;13.20;48.00;;;;;;5115705;27;19923;-83
2021/01/08 01:33:20;;;;;;;;;;;13.10;48.00;;;;;;5115199;27;19959;-81
2021/01/08 01:35:46;;;;;;;;;;;13.00;48.00;;;;;;5114946;27;20007;-80
2021/01/08 01:38:13;;;;;;;;;;;13.00;48.30;;;;;;5114987;27;19924;-81
2021/01/08 01:40:40;;;;;;;;;;;13.00;48.20;;;;;;5115202;27;19974;-81
2021/01/08 01:43:06;;;;;;;;;;;13.10;47.40;;;;;;5114962;27;19946;-80
2021/01/08 01:45:33;;;;;;;;;;;13.10;47.90;;;;;;5114785;27;20018;-80
2021/01/08 01:47:59;;;;;;;;;;;13.20;48.30;;;;;;5114073;27;19924;-80
2021/01/08 01:50:26;;;;;;;;;;;13.10;46.90;;;;;;5102368;28;20394;-80
2021/01/08 01:52:53;;;;;;;;;;;13.10;47.50;;;;;;5094311;28;19923;-80
2021/01/08 01:55:21;;;;;;;;;;;13.00;47.50;;;;;;5094211;28;19966;-80
2021/01/08 01:57:48;;;;;;;;;;;12.70;48.00;;;;;;5111189;28;20014;-80
2021/01/08 02:00:15;;;;;;;;;;;13.00;47.80;;;;;;5110969;28;19966;-82
2021/01/08 02:02:41;;;;;;;;;;;12.90;47.60;;;;;;5110573;28;19923;-80
2021/01/08 02:05:10;;;;;;;;;;;12.90;48.20;;;;;;5094330;28;19931;-80
2021/01/08 02:07:42;;;;;;;;;;;13.00;48.60;;;;;;5115110;27;19924;-80
2021/01/08 02:10:09;;;;;;;;;;;13.00;48.00;;;;;;5094033;28;19924;-80
2021/01/08 02:12:36;;;;;;;;;;;13.10;47.90;;;;;;5094101;28;20364;-79
2021/01/08 02:15:03;;;;;;;;;;;13.20;47.80;;;;;;5094085;28;20287;-79
2021/01/08 02:17:30;;;;;;;;;;;12.70;47.30;;;;;;5109865;27;19923;-80
2021/01/08 02:20:03;;;;;;;;;;;13.30;47.40;;;;;;5114186;27;19927;-80
2021/01/08 02:22:33;;;;;;;;;;;13.30;47.30;;;;;;5114040;27;19933;-79
2021/01/08 02:25:11;;;;;;;;;;;13.30;47.60;;;;;;5114189;27;19924;-80
2021/01/08 02:27:39;;;;;;;;;;;13.20;47.60;;;;;;5109068;28;19977;-80
2021/01/08 02:30:06;;;;;;;;;;;13.10;47.50;;;;;;5093590;28;20442;-79
2021/01/08 02:32:33;;;;;;;;;;;13.00;47.80;;;;;;5093461;28;20046;-84
2021/01/08 02:35:01;;;;;;;;;;;12.80;48.60;;;;;;5093603;28;20000;-80
2021/01/08 02:37:29;;;;;;;;;;;12.90;48.60;;;;;;5093482;28;19923;-80
2021/01/08 02:39:55;;;;;;;;;;;12.80;48.60;;;;;;5093287;28;19924;-79
2021/01/08 02:42:21;;;;;;;;;;;12.80;48.50;;;;;;5093201;28;20011;-80
2021/01/08 02:44:48;;;;;;;;;;;12.90;48.60;;;;;;5093552;28;19947;-80
2021/01/08 02:47:18;;;;;;;;;;;12.90;48.50;;;;;;5093578;28;19930;-79
2021/01/08 02:49:45;;;;;;;;;;;12.90;48.50;;;;;;5093225;28;19931;-80
2021/01/08 02:52:11;;;;;;;;;;;13.10;48.60;;;;;;5089355;28;19930;-79
2021/01/08 02:54:38;;;;;;;;;;;13.00;47.80;;;;;;5090057;28;19925;-79
2021/01/08 02:57:05;;;;;;;;;;;13.00;48.20;;;;;;5089939;28;20006;-79
2021/01/08 02:59:32;;;;;;;;;;;13.10;48.30;;;;;;5089332;28;19930;-79
2021/01/08 03:01:59;;;;;;;;;;;13.10;48.10;;;;;;5089550;28;20017;-79
2021/01/08 03:04:25;;;;;;;;;;;13.10;48.30;;;;;;5089562;28;19931;-80
2021/01/08 03:06:52;;;;;;;;;;;13.10;48.20;;;;;;5089404;28;19925;-79
2021/01/08 03:09:19;;;;;;;;;;;13.20;48.00;;;;;;5089552;28;20368;-80
2021/01/08 03:11:49;;;;;;;;;;;13.30;47.70;;;;;;5089407;28;19924;-80
2021/01/08 03:14:16;;;;;;;;;;;13.30;47.60;;;;;;5089503;28;20014;-79
2021/01/08 03:16:43;;;;;;;;;;;13.30;47.60;;;;;;5098740;28;19928;-80
2021/01/08 03:19:10;;;;;;;;;;;13.20;47.40;;;;;;5110315;28;20281;-79
2021/01/08 03:21:36;;;;;;;;;;;13.20;47.60;;;;;;5109625;28;19924;-79
2021/01/08 03:24:03;;;;;;;;;;;13.20;47.80;;;;;;5109690;28;19930;-80
2021/01/08 03:26:29;;;;;;;;;;;13.30;47.70;;;;;;5109425;28;20019;-80
2021/01/08 03:28:56;;;;;;;;;;;13.30;47.40;;;;;;5093640;28;20331;-80
2021/01/08 03:31:22;;;;;;;;;;;13.30;47.10;;;;;;5089675;28;19924;-80
2021/01/08 03:33:49;;;;;;;;;;;13.30;47.40;;;;;;5089156;28;19924;-79
2021/01/08 03:36:15;;;;;;;;;;;13.20;46.90;;;;;;5089344;28;19928;-80
2021/01/08 03:38:41;;;;;;;;;;;13.10;47.70;;;;;;5089093;28;20322;-81
2021/01/08 03:41:08;;;;;;;;;;;13.10;47.60;;;;;;5089108;28;19924;-80
2021/01/08 03:43:34;;;;;;;;;;;13.10;47.70;;;;;;5088742;28;19928;-80
2021/01/08 03:46:01;;;;;;;;;;;13.10;47.50;;;;;;5089145;28;19964;-81
2021/01/08 03:48:27;;;;;;;;;;;13.00;47.60;;;;;;5089494;28;19924;-81
2021/01/08 03:50:53;;;;;;;;;;;13.10;47.90;;;;;;5088705;28;19931;-80
2021/01/08 03:53:20;;;;;;;;;;;13.10;47.80;;;;;;5089299;28;19947;-79
2021/01/08 03:55:46;;;;;;;;;;;13.10;47.80;;;;;;5088675;28;20014;-80
2021/01/08 03:58:13;;;;;;;;;;;13.10;47.60;;;;;;5088499;28;20332;-80
2021/01/08 04:00:39;;;;;;;;;;;12.80;47.30;;;;;;5089119;28;19928;-80
2021/01/08 04:03:06;;;;;;;;;;;13.10;47.10;;;;;;5088773;28;19935;-80
2021/01/08 04:05:32;;;;;;;;;;;13.00;47.30;;;;;;5089076;28;20189;-81
2021/01/08 04:07:59;;;;;;;;;;;12.90;47.60;;;;;;5092432;28;19931;-80
2021/01/08 04:10:25;;;;;;;;;;;12.80;48.10;;;;;;5089115;28;19924;-80
2021/01/08 04:12:51;;;;;;;;;;;12.60;48.20;;;;;;5092997;28;19924;-80
2021/01/08 04:15:18;;;;;;;;;;;12.60;48.80;;;;;;5092626;28;20034;-80
2021/01/08 04:17:44;;;;;;;;;;;12.60;48.30;;;;;;5111121;28;19924;-79
2021/01/08 04:20:11;;;;;;;;;;;12.70;48.50;;;;;;5113074;28;20400;-81
2021/01/08 04:22:37;;;;;;;;;;;12.90;48.20;;;;;;5112654;28;20303;-79
2021/01/08 04:25:04;;;;;;;;;;;12.80;48.50;;;;;;5113071;28;19930;-79
2021/01/08 04:27:30;;;;;;;;;;;12.90;47.70;;;;;;5109042;28;19924;-80
2021/01/08 04:29:57;;;;;;;;;;;12.70;48.00;;;;;;5092716;28;20010;-79
2021/01/08 04:32:23;;;;;;;;;;;12.90;47.50;;;;;;5092506;28;20421;-79
2021/01/08 04:34:50;;;;;;;;;;;12.80;47.80;;;;;;5092378;28;19935;-79
2021/01/08 04:37:16;;;;;;;;;;;12.70;47.80;;;;;;5092437;28;19928;-80
2021/01/08 04:39:43;;;;;;;;;;;12.60;47.50;;;;;;5092391;28;19930;-79
2021/01/08 04:42:09;;;;;;;;;;;12.70;47.80;;;;;;5092056;28;19930;-79
2021/01/08 04:44:36;;;;;;;;;;;12.70;47.70;;;;;;5092344;28;19950;-79
2021/01/08 04:47:02;;;;;;;;;;;12.70;48.10;;;;;;5092326;28;19930;-80
2021/01/08 04:49:29;;;;;;;;;;;12.70;48.40;;;;;;5092099;28;19981;-79
2021/01/08 04:51:56;;;;;;;;;;;12.80;48.40;;;;;;5091777;28;19974;-80
2021/01/08 04:54:23;;;;;;;;;;;12.90;48.20;;;;;;5091931;28;19924;-80
2021/01/08 04:56:52;;;;;;;;;;;12.90;48.10;;;;;;5092177;28;19925;-80
2021/01/08 04:59:19;;;;;;;;;;;13.00;47.50;;;;;;5091764;28;20287;-79
2021/01/08 05:01:46;;;;;;;;;;;13.10;47.50;;;;;;5091836;28;19924;-80
2021/01/08 05:04:12;;;;;;;;;;;13.10;47.40;;;;;;5091826;28;19924;-80
2021/01/08 05:06:39;;;;;;;;;;;13.20;47.40;;;;;;5091602;28;19959;-81
2021/01/08 05:09:05;;;;;;;;;;;13.20;46.50;;;;;;5091912;28;20353;-82
2021/01/08 05:11:32;;;;;;;;;;;13.20;47.20;;;;;;5091854;28;20360;-81
2021/01/08 05:14:03;;;;;;;;;;;13.10;46.60;;;;;;5091591;28;19931;-80
2021/01/08 05:16:30;;;;;;;;;;;12.90;47.40;;;;;;5099211;28;19934;-80
2021/01/08 05:18:58;;;;;;;;;;;13.00;47.10;;;;;;5111839;28;20447;-80
2021/01/08 05:21:26;;;;;;;;;;;12.90;47.40;;;;;;5111689;28;19931;-81
2021/01/08 05:23:53;;;;;;;;;;;12.90;46.90;;;;;;5111845;28;19931;-81
2021/01/08 05:26:20;;;;;;;;;;;12.90;47.40;;;;;;5111903;28;19928;-81
2021/01/08 05:28:47;;;;;;;;;;;13.00;47.20;;;;;;5097365;28;19924;-80
2021/01/08 05:31:14;;;;;;;;;;;13.10;47.20;;;;;;5091682;28;20320;-80
2021/01/08 05:33:41;;;;;;;;;;;13.20;46.90;;;;;;5091518;28;20014;-81
2021/01/08 05:36:09;;;;;;;;;;;13.20;46.60;;;;;;5091918;28;19985;-81
2021/01/08 05:38:36;;;;;;;;;;;13.10;46.60;;;;;;5092121;28;20019;-80
2021/01/08 05:41:03;;;;;;;;;;;13.10;47.20;;;;;;5093726;28;20018;-81
2021/01/08 05:43:30;;;;;;;;;;;13.10;46.80;;;;;;5092709;28;19928;-80
2021/01/08 05:46:06;;;;;;;;;;;13.10;45.20;;;;;;5091489;28;19924;-79
2021/01/08 05:48:33;;;;;;;;;;;12.90;46.60;;;;;;5090920;28;19924;-80
2021/01/08 05:50:59;;;;;;;;;;;13.00;47.40;;;;;;5090732;28;20427;-80
2021/01/08 05:53:26;;;;;;;;;;;12.80;46.30;;;;;;5090891;28;20015;-80
2021/01/08 05:55:52;;;;;;;;;;;12.40;48.00;;;;;;5091178;28;19963;-79
2021/01/08 05:58:23;;;;;;;;;;;12.60;47.90;;;;;;5091015;28;19935;-80
2021/01/08 06:00:53;;;;;;;;;;;12.60;47.60;;;;;;5090844;28;19924;-80
2021/01/08 06:03:21;;;;;;;;;;;12.30;47.30;;;;;;5090095;28;20349;-80
2021/01/08 06:05:50;;;;;;;;;;;12.40;48.40;;;;;;5090916;28;19974;-80
2021/01/08 06:08:19;;;;;;;;;;;12.40;47.50;;;;;;5093688;28;19928;-80
2021/01/08 06:10:50;;;;;;;;;;;12.20;48.00;;;;;;5110897;28;20338;-80
2021/01/08 06:13:17;;;;;;;;;;;12.40;48.70;;;;;;5110869;28;19924;-80
2021/01/08 06:15:44;;;;;;;;;;;12.60;48.40;;;;;;5109236;28;20384;-80
2021/01/08 06:18:11;;;;;;;;;;;12.60;46.30;;;;;;5090244;28;19924;-80
2021/01/08 06:20:38;;;;;;;;;;;12.60;47.80;;;;;;5090499;28;19931;-81
2021/01/08 06:23:06;;;;;;;;;;;12.70;48.00;;;;;;5089918;28;19924;-80
2021/01/08 06:25:32;;;;;;;;;;;12.80;47.30;;;;;;5090467;28;19977;-81
2021/01/08 06:28:03;;;;;;;;;;;12.80;47.30;;;;;;5098385;28;19924;-80
2021/01/08 06:30:32;;;;;;;;;;;12.80;47.50;;;;;;5110793;28;19942;-80
2021/01/08 06:33:03;;;;;;;;;;;12.80;47.20;;;;;;5110376;28;19924;-80
2021/01/08 06:35:31;;;;;;;;;;;12.90;47.10;;;;;;5110315;28;20011;-80
2021/01/08 06:37:59;;;;;;;;;;;12.80;47.20;;;;;;5110341;28;20010;-80
2021/01/08 06:40:38;;;;;;;;;;;12.60;46.50;;;;;;5110124;28;20388;-80
2021/01/08 06:43:08;;;;;;;;;;;12.00;46.20;;;;;;5110315;28;20322;-80
2021/01/08 06:45:36;;;;;;;;;;;11.70;47.70;;;;;;5110308;28;19950;-79
2021/01/08 06:48:07;;;;;;;;;;;10.90;49.20;;;;;;5110476;28;19930;-79
2021/01/08 06:50:39;;;;;;;;;;;12.10;52.50;;;;;;5096906;28;20359;-80
2021/01/08 06:53:07;;;;;;;;;;;11.30;51.70;;;;;;5089801;28;20011;-80
2021/01/08 06:55:35;;;;;;;;;;;11.30;50.40;;;;;;5089676;28;19955;-80
2021/01/08 06:58:01;;;;;;;;;;;11.70;50.10;;;;;;5089728;28;19934;-80
2021/01/08 07:00:28;;;;;;;;;;;11.80;48.70;;;;;;5090038;28;19924;-80
2021/01/08 07:02:57;;;;;;;;;;;11.20;46.60;;;;;;5089254;28;20404;-79
2021/01/08 07:05:23;;;;;;;;;;;11.20;51.80;;;;;;5089624;28;19946;-80
2021/01/08 07:07:50;;;;;;;;;;;11.50;50.50;;;;;;5089683;28;20015;-80
2021/01/08 07:10:18;;;;;;;;;;;11.80;50.50;;;;;;5089687;28;19924;-81
2021/01/08 07:12:45;;;;;;;;;;;12.10;49.60;;;;;;5089555;28;20383;-80
2021/01/08 07:15:12;;;;;;;;;;;12.30;48.90;;;;;;5089180;28;20441;-80
2021/01/08 07:17:40;;;;;;;;;;;12.50;47.90;;;;;;5106799;28;19924;-80
2021/01/08 07:20:08;;;;;;;;;;;12.60;47.90;;;;;;5109729;28;19924;-80
2021/01/08 07:22:37;;;;;;;;;;;12.70;47.00;;;;;;5109720;28;19928;-80
2021/01/08 07:25:05;;;;;;;;;;;12.60;47.50;;;;;;5109830;28;19924;-80
2021/01/08 07:27:32;;;;;;;;;;;12.70;47.50;;;;;;5105257;28;20589;-80
2021/01/08 07:29:59;;;;;;;;;;;12.80;47.30;;;;;;5089323;28;19931;-80
2021/01/08 07:32:39;;;;;;;;;;;12.80;47.00;;;;;;5088847;28;19934;-80
2021/01/08 07:35:32;;;;;;;;;;;12.80;47.00;;;;;;5089394;28;19924;-79
2021/01/08 07:38:07;;;;;;;;;;;12.90;46.90;;;;;;5089412;28;20007;-79
2021/01/08 07:40:40;;;;;;;;;;;12.90;46.90;;;;;;5089058;28;19925;-80
2021/01/08 07:43:08;;;;;;;;;;;12.90;46.50;;;;;;5089086;28;19950;-80
2021/01/08 07:45:51;;;;;;;;;;;12.90;46.50;;;;;;5089856;28;19928;-80
2021/01/08 07:48:17;;;;;;;;;;;12.90;46.30;;;;;;5093441;28;19924;-79
2021/01/08 07:50:53;;;;;;;;;;;12.90;46.60;;;;;;5092959;28;20007;-80
2021/01/08 07:53:38;;;;;;;;;;;12.90;46.30;;;;;;5093294;28;20139;-80
2021/01/08 07:56:05;;;;;;;;;;;12.90;46.80;;;;;;5093009;28;19924;-80
2021/01/08 07:58:32;;;;;;;;;;;12.90;46.70;;;;;;5093278;28;19923;-80
2021/01/08 08:00:58;;;;;;;;;;;13.00;46.70;;;;;;5093027;28;20262;-80
2021/01/08 08:03:25;;;;;;;;;;;12.90;46.80;;;;;;5092705;28;19931;-80
2021/01/08 08:05:51;;;;;;;;;;;12.90;46.50;;;;;;5093081;28;20015;-80
2021/01/08 08:08:18;;;;;;;;;;;12.90;45.60;;;;;;5093099;28;19924;-80
2021/01/08 08:10:44;;;;;;;;;;;12.40;46.30;;;;;;5096794;28;19930;-80
2021/01/08 08:13:14;;;;;;;;;;;12.90;46.80;;;;;;5092728;28;19932;-81
2021/01/08 08:15:44;;;;;;;;;;;12.90;46.40;;;;;;5093528;28;19950;-80
2021/01/08 08:18:12;;;;;;;;;;;13.00;45.50;;;;;;5112953;28;19973;-80
2021/01/08 08:20:39;;;;;;;;;;;12.90;46.50;;;;;;5113095;28;20018;-80
2021/01/08 08:23:15;;;;;;;;;;;12.90;46.40;;;;;;5112876;28;20316;-80
2021/01/08 08:25:42;;;;;;;;;;;13.00;45.70;;;;;;5113158;28;20329;-80
2021/01/08 08:28:09;;;;;;;;;;;12.90;46.70;;;;;;5103536;28;19931;-80
2021/01/08 08:30:35;;;;;;;;;;;13.00;46.30;;;;;;5093470;28;20266;-81
2021/01/08 08:33:05;;;;;;;;;;;12.90;46.10;;;;;;5093593;28;19924;-80
2021/01/08 08:35:35;;;;;;;;;;;12.90;46.10;;;;;;5093890;28;19950;-81
2021/01/08 08:38:02;;;;;;;;;;;13.60;46.60;;;;;;5094303;28;19956;-80
2021/01/08 08:40:29;;;;;;;;;;;13.10;45.70;;;;;;5093860;28;19924;-81
2021/01/08 08:42:59;;;;;;;;;;;13.10;45.70;;;;;;5093629;28;19951;-79
2021/01/08 08:45:33;;;;;;;;;;;13.20;46.10;;;;;;5093772;28;19924;-80
2021/01/08 08:48:05;;;;;;;;;;;13.20;45.40;;;;;;5092644;28;20027;-80
2021/01/08 08:50:40;;;;;;;;;;;13.20;45.60;;;;;;5091994;28;19978;-80
2021/01/08 08:53:11;;;;;;;;;;;13.20;45.80;;;;;;5091898;28;19924;-80
2021/01/08 08:55:37;;;;;;;;;;;13.20;45.80;;;;;;5091735;28;20395;-80
2021/01/08 08:58:04;;;;;;;;;;;13.30;45.50;;;;;;5096434;28;19924;-80
2021/01/08 09:00:40;;;;;;;;;;;13.30;45.80;;;;;;5110114;28;19924;-80
2021/01/08 09:03:16;;;;;;;;;;;13.60;45.30;;;;;;5111886;28;20288;-81
2021/01/08 09:05:43;;;;;;;;;;;13.80;44.40;;;;;;5110920;28;20039;-81
2021/01/08 09:08:24;;;;;;;;;;;13.50;44.30;;;;;;5111053;28;20026;-81
2021/01/08 09:10:54;;;;;;;;;;;13.30;44.80;;;;;;5112324;28;19951;-80
2021/01/08 09:13:25;;;;;;;;;;;13.30;44.90;;;;;;5113399;28;19932;-81
2021/01/08 09:16:07;;;;;;;;;;;13.30;44.90;;;;;;5109149;28;20415;-81
2021/01/08 09:18:34;;;;;;;;;;;13.10;45.10;;;;;;5091311;28;19928;-80
2021/01/08 09:21:05;;;;;;;;;;;13.10;45.20;;;;;;5091700;28;19939;-81
2021/01/08 09:23:34;;;;;;;;;;;13.10;45.60;;;;;;5091495;28;19963;-80
2021/01/08 09:26:05;;;;;;;;;;;13.10;45.40;;;;;;5091701;28;20016;-81
2021/01/08 09:28:42;;;;;;;;;;;13.10;45.00;;;;;;5104165;28;20376;-80
2021/01/08 09:31:08;;;;;;;;;;;13.00;44.70;;;;;;5112143;28;19955;-80
2021/01/08 09:33:39;;;;;;;;;;;12.70;45.50;;;;;;5112079;28;19947;-80
2021/01/08 09:36:06;;;;;;;;;;;12.70;45.40;;;;;;5111599;28;19955;-81
2021/01/08 09:38:39;;;;;;;;;;;12.60;45.30;;;;;;5111555;28;19928;-80
2021/01/08 09:41:13;;;;;;;;;;;12.40;46.50;;;;;;5111665;28;20001;-80
2021/01/08 09:43:39;;;;;;;;;;;12.30;46.50;;;;;;5104715;28;20285;-79
2021/01/08 09:46:07;;;;;;;;;;;12.50;47.60;;;;;;5101811;28;19934;-80
2021/01/08 09:48:41;;;;;;;;;;;12.90;46.70;;;;;;5091135;28;20269;-80
2021/01/08 09:51:10;;;;;;;;;;;13.00;44.00;;;;;;5090542;28;20212;-80
2021/01/08 09:53:52;;;;;;;;;;;14.20;45.90;;;;;;5101591;28;20395;-81
2021/01/08 09:56:18;;;;;;;;;;;13.50;44.40;;;;;;5107871;28;20284;-81
2021/01/08 09:59:10;;;;;;;;;;;13.80;43.60;;;;;;5091224;28;20292;-81
2021/01/08 10:12:21;;;;;;;;;;;14.10;42.10;;;;;;4966570;28;19921;-85
2021/01/08 10:14:51;;;;;;;;;;;13.90;42.90;;;;;;5091072;28;19928;-85
2021/01/08 10:17:20;;;;;;;;;;;13.80;42.90;;;;;;5090861;28;20400;-87
2021/01/08 10:19:49;;;;;;;;;;;13.70;43.10;;;;;;5087216;28;19963;-81
2021/01/08 10:22:19;;;;;;;;;;;13.80;43.30;;;;;;5089418;28;19931;-82
2021/01/08 10:24:45;;;;;;;;;;;13.70;43.20;;;;;;5101844;28;19924;-80
2021/01/08 10:27:12;;;;;;;;;;;13.50;42.90;;;;;;5097259;28;19928;-79
2021/01/08 10:29:39;;;;;;;;;;;13.50;44.00;;;;;;5093242;28;20293;-82
2021/01/08 10:32:10;;;;;;;;;;;13.50;44.30;;;;;;5089629;28;20032;-83
2021/01/08 10:34:38;;;;;;;;;;;13.50;44.10;;;;;;5093378;28;19928;-81
2021/01/08 10:37:05;;;;;;;;;;;13.40;44.20;;;;;;5090735;28;19923;-79
2021/01/08 10:39:32;;;;;;;;;;;13.10;43.50;;;;;;5098130;28;20166;-79
2021/01/08 10:42:00;;;;;;;;;;;13.30;45.20;;;;;;5089132;28;19934;-80
2021/01/08 10:44:41;;;;;;;;;;;13.60;44.30;;;;;;5098155;28;20273;-79
2021/01/08 10:47:08;;;;;;;;;;;13.80;43.60;;;;;;5097380;28;20027;-80
2021/01/08 10:49:48;;;;;;;;;;;13.80;43.10;;;;;;5101159;28;20001;-80
2021/01/08 10:52:16;;;;;;;;;;;13.90;43.10;;;;;;5103848;28;19924;-78
2021/01/08 10:54:43;;;;;;;;;;;12.20;42.80;;;;;;5096065;28;19932;-79
2021/01/08 10:57:09;;;;;;;;;;;12.30;46.20;;;;;;5094806;28;19924;-79
2021/01/08 10:59:37;;;;;;;;;;;12.20;46.20;;;;;;5086797;28;21999;-81
2021/01/08 11:02:04;;;;;;;;;;;12.40;46.50;;;;;;5103568;28;19924;-79
2021/01/08 11:04:39;;;;;;;;;;;12.60;46.00;;;;;;5094739;28;20014;-82
2021/01/08 11:07:06;;;;;;;;;;;11.80;45.20;;;;;;5097695;28;20408;-79
2021/01/08 11:09:32;;;;;;;;;;;13.20;45.40;;;;;;5097935;28;19932;-75
2021/01/08 11:11:58;;;;;;;;;;;13.50;44.10;;;;;;5099112;28;19928;-75
2021/01/08 11:14:24;;;;;;;;;;;13.70;43.50;;;;;;5096892;28;19931;-75
2021/01/08 11:16:51;;;;;;;;;;;13.90;43.70;;;;;;5094862;28;19985;-74
2021/01/08 11:19:17;;;;;;;;;;;14.00;43.20;;;;;;5098281;28;19923;-76
2021/01/08 11:21:44;;;;;;;;;;;14.10;43.10;;;;;;5096335;28;19930;-76
2021/01/08 11:24:11;;;;;;;;;;;14.20;42.60;;;;;;5094969;28;19939;-75
2021/01/08 11:26:39;;;;;;;;;;;14.30;42.30;;;;;;5094190;28;19928;-74
2021/01/08 11:29:06;;;;;;;;;;;14.40;42.10;;;;;;5094783;28;19995;-79
2021/01/08 11:31:34;;;;;;;;;;;14.40;42.10;;;;;;5093608;28;20034;-78
2021/01/08 11:34:01;;;;;;;;;;;14.50;41.80;;;;;;5096508;28;19960;-77
2021/01/08 11:36:28;;;;;;;;;;;14.60;41.70;;;;;;5095636;28;19975;-78
2021/01/08 11:38:54;;;;;;;;;;;14.70;41.60;;;;;;5094300;28;19941;-78
2021/01/08 11:41:21;;;;;;;;;;;13.80;41.00;;;;;;5097942;28;19924;-78
2021/01/08 11:43:48;;;;;;;;;;;14.70;41.40;;;;;;5094336;28;19939;-81
2021/01/08 11:46:17;;;;;;;;;;;14.70;41.30;;;;;;5098926;28;19924;-80
2021/01/08 11:48:44;;;;;;;;;;;14.70;41.10;;;;;;5091901;28;20030;-82
2021/01/08 11:51:11;;;;;;;;;;;14.70;41.00;;;;;;5095068;28;19932;-78
2021/01/08 11:53:41;;;;;;;;;;;14.80;41.30;;;;;;5094227;28;20398;-77
2021/01/08 11:56:11;;;;;;;;;;;14.90;40.80;;;;;;5099576;28;20010;-80
2021/01/08 11:58:40;;;;;;;;;;;15.00;40.60;;;;;;5093871;28;19971;-78
2021/01/08 12:01:07;;;;;;;;;;;15.00;40.50;;;;;;5094930;28;19991;-79
2021/01/08 12:03:35;;;;;;;;;;;15.10;40.20;;;;;;5096789;28;20307;-77
2021/01/08 12:06:03;;;;;;;;;;;15.10;40.70;;;;;;5096342;28;20656;-74
2021/01/08 12:08:31;;;;;;;;;;;15.10;40.50;;;;;;5093771;28;19947;-79
2021/01/08 12:10:58;;;;;;;;;;;15.00;40.50;;;;;;5095824;28;19932;-77
2021/01/08 12:13:25;;;;;;;;;;;15.10;40.50;;;;;;5094299;28;20189;-79
2021/01/08 12:15:51;;;;;;;;;;;15.10;40.40;;;;;;5095399;28;19924;-80
2021/01/08 12:18:18;;;;;;;;;;;15.10;40.40;;;;;;5096965;28;20409;-78
2021/01/08 12:20:46;;;;;;;;;;;15.10;40.30;;;;;;5096043;28;19975;-80
2021/01/08 12:23:14;;;;;;;;;;;15.10;40.30;;;;;;5096130;28;20364;-80
2021/01/08 12:25:41;;;;;;;;;;;14.90;40.60;;;;;;5095572;28;19950;-83
2021/01/08 12:28:13;;;;;;;;;;;14.90;40.40;;;;;;5099505;28;19928;-81
2021/01/08 12:31:03;;;;;;;;;;;14.40;39.70;;;;;;5097034;28;19932;-81
2021/01/08 12:33:35;;;;;;;;;;;14.90;40.90;;;;;;5096083;28;19931;-82
2021/01/08 12:36:05;;;;;;;;;;;14.90;40.80;;;;;;5100055;28;19924;-84
2021/01/08 12:38:46;;;;;;;;;;;15.00;40.40;;;;;;5102458;28;19931;-84
2021/01/08 12:41:26;;;;;;;;;;;15.20;40.70;;;;;;5102641;28;19992;-84
2021/01/08 12:43:58;;;;;;;;;;;15.20;40.50;;;;;;5102255;28;20431;-84
2021/01/08 12:46:32;;;;;;;;;;;15.20;40.50;;;;;;5101041;28;19924;-84
2021/01/08 12:49:05;;;;;;;;;;;15.20;40.50;;;;;;5092268;28;19928;-84
2021/01/08 12:51:37;;;;;;;;;;;15.20;40.30;;;;;;5091555;28;19983;-84
2021/01/08 12:54:12;;;;;;;;;;;15.20;40.40;;;;;;5092420;28;19928;-83
2021/01/08 12:56:44;;;;;;;;;;;14.60;39.90;;;;;;5092479;28;19943;-82
2021/01/08 12:59:17;;;;;;;;;;;15.20;40.30;;;;;;5093785;28;20007;-86
2021/01/08 13:05:09;;;;;;;;;;;15.30;40.00;;;;;;5083099;28;20032;-85
2021/01/08 13:07:49;;;;;;;;;;;;;;;;;;;;;
2021/01/08 13:10:30;;;;;;;;;;;15.30;40.10;;;;;;5108457;28;19952;-87
2021/01/08 13:16:46;;;;;;;;;;;15.70;39.80;;;;;;5349251;22;20444;-89
2021/01/08 13:20:22;;;;;;;;;;;15.50;39.80;;;;;;5043928;28;19939;-82
2021/01/08 13:23:13;;;;;;;;;;;15.50;39.60;;;;;;4996530;28;19972;-90
2021/01/08 13:29:23;;;;;;;;;;;15.30;39.60;;;;;;4997377;28;19980;-91
2021/01/08 13:32:22;;;;;;;;;;;15.20;39.80;;;;;;4999562;28;20425;-92
2021/01/08 13:35:18;;;;;;;;;;;;;;;;;;;;;
2021/01/08 13:38:18;;;;;;;;;;;15.20;39.00;;;;;;4997758;28;19925;-87
2021/01/08 13:41:09;;;;;;;;;;;;;;;;;;;;;
2021/01/08 13:43:36;;;;;;;;;;;15.30;38.90;;;;;;5042391;28;20254;-86
2021/01/08 13:46:14;;;;;;;;;;;15.30;39.00;;;;;;5039308;28;19925;-79
2021/01/08 13:48:44;;;;;;;;;;;15.40;39.10;;;;;;5040705;28;20391;-81
2021/01/08 13:51:17;;;;;;;;;;;15.40;38.80;;;;;;5040202;28;19932;-79
2021/01/08 13:53:44;;;;;;;;;;;15.40;39.00;;;;;;5040614;28;19929;-79
2021/01/08 13:56:14;;;;;;;;;;;15.40;38.90;;;;;;5038904;28;19925;-79
2021/01/08 13:58:40;;;;;;;;;;;15.30;38.80;;;;;;5037241;28;19925;-79
2021/01/08 14:01:07;;;;;;;;;;;15.20;39.40;;;;;;5039494;28;19929;-79
2021/01/08 14:03:34;;;;;;;;;;;15.20;39.50;;;;;;5037376;28;20337;-77
2021/01/08 14:06:01;;;;;;;;;;;15.20;39.60;;;;;;5039564;28;19925;-77
2021/01/08 14:08:28;;;;;;;;;;;15.20;39.50;;;;;;5039686;28;19925;-79
2021/01/08 14:10:54;;;;;;;;;;;15.20;39.30;;;;;;5038334;28;19925;-77
2021/01/08 14:13:20;;;;;;;;;;;15.30;39.10;;;;;;5039148;28;20392;-79
2021/01/08 14:15:47;;;;;;;;;;;15.30;38.40;;;;;;5036272;28;20320;-79
2021/01/08 14:18:14;;;;;;;;;;;15.20;39.20;;;;;;5050139;28;20273;-78
2021/01/08 14:20:40;;;;;;;;;;;15.20;39.00;;;;;;5050697;28;19924;-78
2021/01/08 14:23:07;;;;;;;;;;;15.20;38.90;;;;;;5051145;28;20292;-79
2021/01/08 14:25:33;;;;;;;;;;;15.20;38.90;;;;;;5049503;28;20409;-78
2021/01/08 14:27:59;;;;;;;;;;;15.30;38.70;;;;;;5051220;28;19924;-77
2021/01/08 14:30:26;;;;;;;;;;;15.20;38.40;;;;;;5049818;28;19925;-79
2021/01/08 14:32:52;;;;;;;;;;;15.20;38.40;;;;;;5047342;28;19956;-80
2021/01/08 14:35:19;;;;;;;;;;;15.30;38.40;;;;;;5038856;28;19925;-75
2021/01/08 14:37:46;;;;;;;;;;;15.30;37.70;;;;;;5038749;28;19952;-76
2021/01/08 14:40:13;;;;;;;;;;;15.40;37.40;;;;;;5038510;28;19925;-78
2021/01/08 14:42:40;;;;;;;;;;;15.30;37.50;;;;;;5041433;28;19925;-89
2021/01/08 14:45:06;;;;;;;;;;;15.40;37.20;;;;;;5042978;28;20020;-79
2021/01/08 14:47:33;;;;;;;;;;;15.30;37.20;;;;;;5037883;28;19931;-81
2021/01/08 14:49:59;;;;;;;;;;;15.30;37.20;;;;;;5040060;28;19971;-80
2021/01/08 14:52:25;;;;;;;;;;;15.30;37.50;;;;;;5039257;28;19951;-83
2021/01/08 14:54:52;;;;;;;;;;;15.40;37.40;;;;;;5043776;28;20163;-81